Pagrindinis puslapis
METAR-TAF:

METAR-TAF

Oro uostai :

Kolkata, Indija

platuma: 22-39N, ilguma: 088-27E, Aukštis: 4 m

Dabartinis oras

Ataskaita buvo paskelbta 10 minutes, ne 15:00 UTC
Ramus vėjas
Temperatūra 23°C
Drėgmė 65%
Slėgis 1014 hPa
Matomumas: 3500 m
migla

METAR: VECC 191500Z 00000KT 3500 HZ NSC 23/16 Q1014 NOSIG

Laikas: 20:40 (15:10 UTC)

Prognozė

Ataskaita buvo paskelbta 1 valandą ir 10 minutes, ne 14:00 UTC
Prognozė galioja nuo 19 metu 15 UTC su 19 metu 24 UTC
Vėjas kt iš Šiaurės
Matomumas: 3000 m
migla
Tapsmas
nuo 19 metu 17 UTC su 19 metu 19 UTC
Matomumas: 2400 m
rūkana
Tapsmas
nuo 19 metu 22 UTC su 19 metu 24 UTC
Vėjas 5 kt iš Šiaurės/Šiaurės Vakarų
Matomumas: 1400 m
rūkana

TAF: VECC 191400Z 1915/1924 00000KT 3000 HZ NSC BECMG 1917/1919 2400 BR BECMG 1922/1924 34005KT 1400 BR

Orai ataskaitas ir orų prognozės (METAR, TAF).

turimą stotys yra geltonos ir raudonos taškus žemėlapyje.

Perkelti pele per norėdami pamatyti stoties vardą.

Tada spustelėkite, norėdami matyti oro stebėjimo ir prognozės.

Norėdami pakeisti žemėlapį: spustelėkite ant žalios mygtukų su juodo kryžiaus žemyn,; žalią mygtuką su brūkšneliu, jei norite nutolinti; arba žalių rodyklių gretimoms žemėlapius.


METAR-TAF: